createdAt,value
2023-03-03T00:03:11.274Z,1.70
2023-03-03T00:08:12.779Z,1.74
2023-03-03T00:13:19.993Z,1.71
2023-03-03T00:18:28.650Z,1.73
2023-03-03T00:23:43.131Z,1.70
2023-03-03T00:28:47.187Z,1.52
2023-03-03T00:33:55.636Z,1.41
2023-03-03T00:39:31.448Z,1.36
2023-03-03T00:45:00.140Z,1.36
2023-03-03T00:50:07.552Z,1.38
2023-03-03T00:55:09.097Z,1.31
2023-03-03T01:00:11.630Z,1.26
2023-03-03T01:05:15.181Z,1.30
2023-03-03T01:10:18.215Z,1.40
2023-03-03T01:15:19.694Z,1.50
2023-03-03T01:20:21.869Z,1.49
2023-03-03T01:25:23.572Z,1.20
2023-03-03T01:30:25.742Z,0.97
2023-03-03T01:35:27.276Z,1.03
2023-03-03T01:40:31.006Z,1.22
2023-03-03T01:45:53.770Z,1.04
2023-03-03T01:51:00.144Z,0.82
2023-03-03T01:56:02.875Z,0.83
2023-03-03T02:01:13.420Z,0.75
2023-03-03T02:06:17.663Z,0.61
2023-03-03T02:11:21.347Z,0.50
2023-03-03T02:16:22.826Z,0.38
2023-03-03T02:21:28.126Z,0.36
2023-03-03T02:26:32.103Z,0.29
2023-03-03T02:31:38.675Z,0.25
2023-03-03T02:36:40.448Z,0.25
2023-03-03T02:41:58.818Z,0.17
2023-03-03T02:47:06.804Z,0.02
2023-03-03T02:52:10.543Z,-0.06
2023-03-03T02:57:14.675Z,-0.11
2023-03-03T03:02:16.216Z,-0.16
2023-03-03T03:07:17.822Z,-0.25
2023-03-03T03:12:21.088Z,-0.28
2023-03-03T03:17:26.169Z,-0.24
2023-03-03T03:22:28.944Z,-0.21
2023-03-03T03:27:30.790Z,-0.22
2023-03-03T03:32:32.393Z,-0.27
2023-03-03T03:37:35.028Z,-0.26
2023-03-03T03:42:39.502Z,-0.24
2023-03-03T03:47:42.455Z,-0.25
2023-03-03T03:52:44.793Z,-0.20
2023-03-03T03:57:47.034Z,-0.22
2023-03-03T04:02:48.930Z,-0.22
2023-03-03T04:07:52.366Z,-0.07
2023-03-03T04:12:54.550Z,0.14
2023-03-03T04:17:56.966Z,0.32
2023-03-03T04:22:59.017Z,0.40
2023-03-03T04:28:01.108Z,0.45
2023-03-03T04:33:02.714Z,0.54
2023-03-03T04:38:05.875Z,0.59
2023-03-03T04:43:10.110Z,0.54
2023-03-03T04:48:11.983Z,0.56
2023-03-03T04:53:13.759Z,0.61
2023-03-03T04:58:16.830Z,0.64
2023-03-03T05:03:19.443Z,0.58
2023-03-03T05:08:21.075Z,0.41
2023-03-03T05:13:22.818Z,0.24
2023-03-03T05:18:26.024Z,0.12
2023-03-03T05:23:27.433Z,0.15
2023-03-03T05:28:28.952Z,0.16
2023-03-03T05:33:30.501Z,0.16
2023-03-03T05:38:31.949Z,0.11
2023-03-03T05:43:33.658Z,0.05
2023-03-03T05:48:35.057Z,0.03
2023-03-03T05:53:36.626Z,0.01
2023-03-03T05:58:38.191Z,-0.02
2023-03-03T06:03:39.745Z,0.02
2023-03-03T06:08:41.162Z,0.11
2023-03-03T06:13:42.615Z,0.04
2023-03-03T06:18:44.017Z,0.09
2023-03-03T06:23:45.434Z,0.20
2023-03-03T06:28:47.083Z,0.38
2023-03-03T06:33:49.736Z,0.54
2023-03-03T06:38:51.629Z,0.70
2023-03-03T06:43:53.493Z,0.48
2023-03-03T06:48:55.115Z,0.31
2023-03-03T06:53:58.289Z,0.21
2023-03-03T06:59:00.620Z,0.13
2023-03-03T07:04:10.634Z,0.09
2023-03-03T07:09:21.316Z,0.14
2023-03-03T07:14:22.808Z,0.14
2023-03-03T07:19:30.317Z,0.13
2023-03-03T07:24:31.776Z,0.16
2023-03-03T07:29:34.173Z,0.23
2023-03-03T07:34:43.912Z,0.32
2023-03-03T07:39:47.351Z,0.38
2023-03-03T07:44:52.380Z,0.37
2023-03-03T07:49:56.651Z,0.35
2023-03-03T07:55:01.960Z,0.36
2023-03-03T08:00:18.774Z,0.36
2023-03-03T08:05:20.810Z,0.38
2023-03-03T08:10:32.308Z,0.38
2023-03-03T08:15:37.938Z,0.35
2023-03-03T08:20:50.563Z,0.42
2023-03-03T08:25:53.722Z,0.43
2023-03-03T08:31:08.951Z,0.41
2023-03-03T08:36:16.636Z,0.39
2023-03-03T08:41:18.060Z,0.38
2023-03-03T08:46:19.584Z,0.46
2023-03-03T08:51:21.071Z,0.54
2023-03-03T08:56:22.593Z,0.53
2023-03-03T09:01:24.507Z,0.52
2023-03-03T09:06:26.052Z,0.56
2023-03-03T09:11:29.288Z,0.54
2023-03-03T09:16:34.898Z,0.59
2023-03-03T09:21:36.648Z,0.64
2023-03-03T09:26:52.916Z,0.67
2023-03-03T09:52:03.734Z,0.96
2023-03-03T09:57:24.813Z,0.92
2023-03-03T10:02:48.473Z,0.84
2023-03-03T10:13:27.410Z,1.01
2023-03-03T10:18:35.859Z,0.88
2023-03-03T10:24:01.492Z,0.88
2023-03-03T11:02:33.205Z,0.94
2023-03-03T11:22:53.164Z,1.01
2023-03-03T11:28:09.516Z,0.98
2023-03-03T11:33:34.678Z,0.94
2023-03-03T12:19:14.288Z,0.85
2023-03-03T12:24:29.643Z,0.92
2023-03-03T12:30:16.390Z,0.98
2023-03-03T12:35:39.167Z,1.03
2023-03-03T12:40:58.098Z,1.04
2023-03-03T12:46:02.422Z,1.13
2023-03-03T12:51:12.440Z,1.14
2023-03-03T12:56:26.619Z,1.16
2023-03-03T13:02:00.210Z,1.20
2023-03-03T13:07:01.986Z,1.21
2023-03-03T13:12:31.480Z,1.18
2023-03-03T13:17:49.431Z,1.22
2023-03-03T13:23:16.041Z,1.23
2023-03-03T13:28:33.960Z,1.23
2023-03-03T13:33:36.046Z,1.33
2023-03-03T13:38:43.036Z,1.45
2023-03-03T13:44:01.827Z,1.56
2023-03-03T13:49:25.378Z,1.59
2023-03-03T13:54:44.706Z,1.63
2023-03-03T14:00:06.531Z,1.52
2023-03-03T14:05:18.450Z,1.48
2023-03-03T14:10:28.903Z,1.58
2023-03-03T14:15:54.457Z,1.68
2023-03-03T14:21:18.858Z,1.74
2023-03-03T14:26:20.268Z,1.70
2023-03-03T14:31:25.080Z,1.66
2023-03-03T14:36:33.302Z,1.83
2023-03-03T14:41:40.185Z,1.90
2023-03-03T14:46:42.964Z,2.05
2023-03-03T14:51:49.669Z,2.07
2023-03-03T14:56:59.087Z,2.08
2023-03-03T15:02:16.002Z,2.05
2023-03-03T15:07:36.363Z,2.03
2023-03-03T15:12:40.615Z,1.92
2023-03-03T15:18:05.217Z,1.71
2023-03-03T15:23:19.440Z,1.51
2023-03-03T15:28:25.088Z,1.50
2023-03-03T15:33:41.638Z,1.30
2023-03-03T15:38:50.816Z,1.12
2023-03-03T15:44:07.075Z,1.03
2023-03-03T15:49:26.457Z,1.03
2023-03-03T15:54:36.777Z,1.15
2023-03-03T15:59:53.583Z,1.07
2023-03-03T16:05:03.090Z,0.92
2023-03-03T16:10:32.467Z,0.88
2023-03-03T16:16:01.382Z,0.94
2023-03-03T16:21:25.587Z,0.97
2023-03-03T16:26:43.334Z,1.04
2023-03-03T16:31:52.657Z,0.97
2023-03-03T16:37:04.545Z,0.95
2023-03-03T16:42:29.385Z,0.88
2023-03-03T16:47:39.838Z,0.82
2023-03-03T16:52:49.596Z,0.81
2023-03-03T16:58:00.060Z,0.81
2023-03-03T17:03:28.606Z,0.82
2023-03-03T17:08:48.279Z,0.92
2023-03-03T17:14:14.314Z,0.91
2023-03-03T17:19:40.181Z,0.96
2023-03-03T17:25:11.165Z,1.01
2023-03-03T17:30:49.571Z,1.14
2023-03-03T17:36:28.816Z,1.17
2023-03-03T17:41:33.238Z,1.17
2023-03-03T17:46:42.706Z,1.20
2023-03-03T17:52:07.194Z,1.20
2023-03-03T17:57:17.367Z,1.22
2023-03-03T18:02:37.098Z,1.24
2023-03-03T18:08:14.781Z,1.30
2023-03-03T18:13:57.398Z,1.38
2023-03-03T18:19:07.853Z,1.36
2023-03-03T18:24:33.302Z,1.38
2023-03-03T18:29:35.023Z,1.46
2023-03-03T18:34:39.990Z,1.46
2023-03-03T18:40:01.630Z,1.44
2023-03-03T18:45:29.504Z,1.48
2023-03-03T18:50:38.264Z,1.47
2023-03-03T18:55:47.889Z,1.54
2023-03-03T19:00:55.078Z,1.61
2023-03-03T19:06:01.399Z,1.63
2023-03-03T19:11:05.203Z,1.63
2023-03-03T19:16:39.513Z,1.67
2023-03-03T19:22:04.637Z,1.70
2023-03-03T19:27:36.749Z,1.75
2023-03-03T19:32:53.779Z,1.74
2023-03-03T19:38:14.694Z,1.74
2023-03-03T19:43:55.112Z,1.74
2023-03-03T19:49:25.357Z,1.76
2023-03-03T19:54:52.016Z,1.79
2023-03-03T20:00:12.700Z,1.81
2023-03-03T20:05:26.389Z,1.81
2023-03-03T20:10:54.241Z,1.85
2023-03-03T20:16:34.697Z,1.85
2023-03-03T20:21:46.509Z,1.84
2023-03-03T20:26:55.652Z,1.81
2023-03-03T20:32:11.417Z,1.85
2023-03-03T20:37:23.027Z,1.85
2023-03-03T20:42:52.787Z,1.87
2023-03-03T20:48:13.149Z,1.85
2023-03-03T20:53:17.692Z,1.84
2023-03-03T20:58:57.823Z,1.83
2023-03-03T21:04:21.540Z,1.82
2023-03-03T21:09:28.446Z,1.80
2023-03-03T21:14:37.758Z,1.86
2023-03-03T21:19:39.621Z,1.88
2023-03-03T21:25:06.185Z,1.83
2023-03-03T21:30:08.907Z,1.80
2023-03-03T21:35:18.917Z,1.78
2023-03-03T21:40:25.840Z,1.77
2023-03-03T21:45:30.002Z,1.69
2023-03-03T21:50:32.612Z,1.64
2023-03-03T21:55:34.063Z,1.66
2023-03-03T22:00:35.476Z,1.71
2023-03-03T22:05:36.915Z,1.76
2023-03-03T22:10:38.939Z,1.75
2023-03-03T22:15:40.362Z,1.65
2023-03-03T22:20:41.772Z,1.59
2023-03-03T22:25:43.184Z,1.61
2023-03-03T22:30:44.634Z,1.61
2023-03-03T22:35:46.401Z,1.60
2023-03-03T22:40:47.903Z,1.59
2023-03-03T22:45:50.442Z,1.54
2023-03-03T22:50:52.457Z,1.53
2023-03-03T22:55:54.266Z,1.50
2023-03-03T23:00:55.816Z,1.50
2023-03-03T23:05:57.222Z,1.47
2023-03-03T23:10:58.642Z,1.50
2023-03-03T23:16:00.232Z,1.48
2023-03-03T23:21:01.775Z,1.48
2023-03-03T23:26:03.527Z,1.46
2023-03-03T23:31:05.082Z,1.47
2023-03-03T23:36:07.023Z,1.50
2023-03-03T23:41:08.473Z,1.51
2023-03-03T23:46:09.983Z,1.55
2023-03-03T23:51:11.406Z,1.57
2023-03-03T23:56:12.804Z,1.58
